createdAt,value
2022-09-04T00:01:39.495Z,2.67
2022-09-04T00:04:25.743Z,2.53
2022-09-04T00:07:04.553Z,3.17
2022-09-04T00:09:41.251Z,3.00
2022-09-04T00:12:10.784Z,2.80
2022-09-04T00:14:46.316Z,2.90
2022-09-04T00:17:24.358Z,2.80
2022-09-04T00:19:59.538Z,2.50
2022-09-04T00:22:33.698Z,2.80
2022-09-04T00:25:11.319Z,3.10
2022-09-04T00:27:45.251Z,3.00
2022-09-04T00:30:17.284Z,3.20
2022-09-04T00:32:54.638Z,2.87
2022-09-04T00:35:31.489Z,3.27
2022-09-04T00:38:06.272Z,2.70
2022-09-04T00:40:38.722Z,3.13
2022-09-04T00:43:37.561Z,2.60
2022-09-04T00:46:22.109Z,2.80
2022-09-04T00:49:21.619Z,2.90
2022-09-04T00:52:01.511Z,2.90
2022-09-04T00:54:51.534Z,2.90
2022-09-04T00:57:50.705Z,2.50
2022-09-04T01:00:20.628Z,3.20
2022-09-04T01:03:18.509Z,2.90
2022-09-04T01:06:05.007Z,2.70
2022-09-04T01:08:48.714Z,3.20
2022-09-04T01:11:29.017Z,3.03
2022-09-04T01:14:13.083Z,2.73
2022-09-04T01:16:48.699Z,2.93
2022-09-04T01:19:31.133Z,2.63
2022-09-04T01:22:17.205Z,2.77
2022-09-04T01:25:06.749Z,3.00
2022-09-04T01:27:47.132Z,3.27
2022-09-04T01:30:18.654Z,2.90
2022-09-04T01:33:02.366Z,3.10
2022-09-04T01:35:38.684Z,3.40
2022-09-04T01:38:16.177Z,2.70
2022-09-04T01:40:49.400Z,3.23
2022-09-04T01:43:21.162Z,3.10
2022-09-04T01:46:19.481Z,2.67
2022-09-04T01:48:55.540Z,2.97
2022-09-04T01:51:33.383Z,3.20
2022-09-04T01:54:13.765Z,3.30
2022-09-04T01:56:46.650Z,3.10
2022-09-04T01:59:26.999Z,3.40
2022-09-04T02:02:01.843Z,3.07
2022-09-04T02:04:35.909Z,3.10
2022-09-04T02:07:17.396Z,3.60
2022-09-04T02:09:59.591Z,3.00
2022-09-04T02:12:35.912Z,3.27
2022-09-04T02:15:13.434Z,3.10
2022-09-04T02:17:48.563Z,3.33
2022-09-04T02:20:26.543Z,2.83
2022-09-04T02:23:11.777Z,3.30
2022-09-04T02:25:45.977Z,3.10
2022-09-04T02:28:29.902Z,3.17
2022-09-04T02:31:06.392Z,2.93
2022-09-04T02:33:42.430Z,2.90
2022-09-04T02:36:15.718Z,3.40
2022-09-04T02:38:53.696Z,3.33
2022-09-04T02:41:31.265Z,3.03
2022-09-04T02:44:21.400Z,3.27
2022-09-04T02:47:04.972Z,3.33
2022-09-04T02:49:40.797Z,3.10
2022-09-04T02:52:20.568Z,3.27
2022-09-04T02:55:01.765Z,3.10
2022-09-04T02:57:40.468Z,2.97
2022-09-04T03:00:15.135Z,3.70
2022-09-04T03:02:53.805Z,3.00
2022-09-04T03:05:26.089Z,3.43
2022-09-04T03:08:00.605Z,3.60
2022-09-04T03:10:32.958Z,3.20
2022-09-04T03:13:06.369Z,3.27
2022-09-04T03:15:42.290Z,3.10
2022-09-04T03:18:20.984Z,3.13
2022-09-04T03:20:55.580Z,3.10
2022-09-04T03:23:29.836Z,3.50
2022-09-04T03:26:25.799Z,3.10
2022-09-04T03:29:02.929Z,3.10
2022-09-04T03:31:36.442Z,3.30
2022-09-04T03:34:38.112Z,3.30
2022-09-04T03:37:19.045Z,3.10
2022-09-04T03:39:59.807Z,3.80
2022-09-04T03:42:36.569Z,3.70
2022-09-04T03:45:18.894Z,3.67
2022-09-04T03:48:01.535Z,3.17
2022-09-04T03:50:36.477Z,3.63
2022-09-04T03:53:15.421Z,3.80
2022-09-04T03:56:06.959Z,3.73
2022-09-04T03:58:43.396Z,3.80
2022-09-04T04:01:25.256Z,3.53
2022-09-04T04:04:15.797Z,3.30
2022-09-04T04:06:53.600Z,3.50
2022-09-04T04:09:43.644Z,3.40
2022-09-04T04:12:27.342Z,3.70
2022-09-04T04:15:14.868Z,3.87
2022-09-04T04:18:20.061Z,3.90
2022-09-04T04:21:00.739Z,3.90
2022-09-04T04:23:58.109Z,4.20
2022-09-04T04:26:40.817Z,3.47
2022-09-04T04:29:26.853Z,3.53
2022-09-04T04:32:14.586Z,4.00
2022-09-04T04:34:56.630Z,3.53
2022-09-04T04:37:34.425Z,3.70
2022-09-04T04:40:12.187Z,3.47
2022-09-04T04:42:49.209Z,3.93
2022-09-04T04:45:43.680Z,3.70
2022-09-04T04:48:57.840Z,3.43
2022-09-04T04:51:43.836Z,3.83
2022-09-04T04:54:27.372Z,3.83
2022-09-04T04:57:02.605Z,3.87
2022-09-04T04:59:49.286Z,3.47
2022-09-04T05:02:27.397Z,3.77
2022-09-04T05:05:02.513Z,4.10
2022-09-04T05:07:39.243Z,4.03
2022-09-04T05:10:18.755Z,3.80
2022-09-04T05:13:10.407Z,3.93
2022-09-04T05:16:07.521Z,3.73
2022-09-04T05:18:36.808Z,3.70
2022-09-04T05:21:12.593Z,3.70
2022-09-04T05:23:49.512Z,3.30
2022-09-04T05:26:25.798Z,3.70
2022-09-04T05:29:02.284Z,3.77
2022-09-04T05:31:40.346Z,3.50
2022-09-04T05:34:13.529Z,3.73
2022-09-04T05:36:49.997Z,3.90
2022-09-04T05:39:29.106Z,3.67
2022-09-04T05:42:18.946Z,4.27
2022-09-04T05:44:57.665Z,3.60
2022-09-04T05:47:51.138Z,3.50
2022-09-04T05:50:39.711Z,3.80
2022-09-04T05:53:40.430Z,3.40
2022-09-04T05:57:09.598Z,4.07
2022-09-04T06:00:28.606Z,3.50
2022-09-04T06:03:39.212Z,3.50
2022-09-04T06:10:29.616Z,3.67
2022-09-04T06:13:30.576Z,3.60
2022-09-04T06:16:30.204Z,3.43
2022-09-04T06:19:52.730Z,3.70
2022-09-04T06:23:03.833Z,3.77
2022-09-04T06:26:16.174Z,3.60
2022-09-04T06:30:27.231Z,3.60
2022-09-04T06:33:45.021Z,3.87
2022-09-04T06:37:01.233Z,3.67
2022-09-04T06:39:54.609Z,3.50
2022-09-04T06:42:54.121Z,3.53
2022-09-04T06:46:02.021Z,2.80
2022-09-04T06:48:43.909Z,3.17
2022-09-04T06:51:28.330Z,3.50
2022-09-04T06:54:10.807Z,3.03
2022-09-04T06:56:54.296Z,3.10
2022-09-04T06:59:57.624Z,3.50
2022-09-04T07:02:41.384Z,3.23
2022-09-04T07:05:20.615Z,3.23
2022-09-04T07:07:58.146Z,2.80
2022-09-04T07:10:33.579Z,3.40
2022-09-04T07:13:26.311Z,3.30
2022-09-04T07:16:10.759Z,3.23
2022-09-04T07:19:03.427Z,2.70
2022-09-04T07:21:41.912Z,2.67
2022-09-04T07:24:33.322Z,3.00
2022-09-04T07:27:12.265Z,2.70
2022-09-04T07:29:49.156Z,3.03
2022-09-04T07:32:23.990Z,2.90
2022-09-04T07:34:59.215Z,3.20
2022-09-04T07:37:39.651Z,2.63
2022-09-04T07:40:15.966Z,2.93
2022-09-04T07:42:51.946Z,2.80
2022-09-04T07:45:30.246Z,2.70
2022-09-04T07:48:12.295Z,2.83
2022-09-04T07:51:10.234Z,2.33
2022-09-04T07:54:08.729Z,2.70
2022-09-04T07:56:54.916Z,2.77
2022-09-04T07:59:44.647Z,2.60
2022-09-04T08:02:37.781Z,2.40
2022-09-04T08:05:25.073Z,2.25
2022-09-04T08:08:10.633Z,2.33
2022-09-04T08:10:49.792Z,2.20
2022-09-04T08:13:33.650Z,2.50
2022-09-04T08:16:08.569Z,2.53
2022-09-04T08:18:53.286Z,2.30
2022-09-04T08:21:29.712Z,2.43
2022-09-04T08:24:17.128Z,2.30
2022-09-04T08:30:05.020Z,2.37
2022-09-04T08:33:06.691Z,2.53
2022-09-04T08:35:40.666Z,2.30
2022-09-04T08:38:25.390Z,2.20
2022-09-04T08:41:53.154Z,2.25
2022-09-04T08:44:53.531Z,2.60
2022-09-04T08:47:51.879Z,2.30
2022-09-04T08:50:44.007Z,2.30
2022-09-04T08:53:54.388Z,2.30
2022-09-04T08:56:28.290Z,2.00
2022-09-04T08:59:19.796Z,2.28
2022-09-04T09:02:33.786Z,2.60
2022-09-04T09:05:27.326Z,2.25
2022-09-04T09:08:31.970Z,2.08
2022-09-04T09:11:41.343Z,2.05
2022-09-04T09:14:41.994Z,2.13
2022-09-04T09:17:17.024Z,2.47
2022-09-04T09:19:53.223Z,2.42
2022-09-04T09:22:39.548Z,2.60
2022-09-04T09:25:21.267Z,2.10
2022-09-04T09:28:26.436Z,2.10
2022-09-04T09:31:42.806Z,2.33
2022-09-04T09:34:57.681Z,2.13
2022-09-04T09:37:41.771Z,2.20
2022-09-04T09:40:36.959Z,2.50
2022-09-04T09:43:43.989Z,2.47
2022-09-04T09:47:02.329Z,2.20
2022-09-04T09:50:15.734Z,2.20
2022-09-04T09:53:13.832Z,2.17
2022-09-04T09:56:27.152Z,2.10
2022-09-04T09:59:44.980Z,2.30
2022-09-04T10:03:09.138Z,2.20
2022-09-04T10:06:25.303Z,2.00
2022-09-04T10:09:24.648Z,2.38
2022-09-04T10:12:27.057Z,2.10
2022-09-04T10:15:37.621Z,2.42
2022-09-04T10:18:32.942Z,2.13
2022-09-04T10:21:46.513Z,2.08
2022-09-04T10:24:51.575Z,2.20
2022-09-04T10:27:57.259Z,2.08
2022-09-04T10:30:30.540Z,2.40
2022-09-04T10:33:50.330Z,2.28
2022-09-04T10:36:27.995Z,2.35
2022-09-04T10:39:32.792Z,2.40
2022-09-04T10:42:10.802Z,2.35
2022-09-04T10:44:51.731Z,2.08
2022-09-04T10:47:34.217Z,2.10
2022-09-04T10:50:18.484Z,2.03
2022-09-04T10:53:22.847Z,2.25
2022-09-04T10:56:12.220Z,2.38
2022-09-04T10:58:55.438Z,2.58
2022-09-04T11:01:58.580Z,2.38
2022-09-04T11:05:10.373Z,2.00
2022-09-04T11:08:09.463Z,2.10
2022-09-04T11:11:06.861Z,2.25
2022-09-04T11:14:09.837Z,2.20
2022-09-04T11:17:25.268Z,2.00
2022-09-04T11:20:27.509Z,2.00
2022-09-04T11:23:30.525Z,2.05
2022-09-04T11:26:47.474Z,2.25
2022-09-04T11:29:34.207Z,2.28
2022-09-04T11:32:32.159Z,2.13
2022-09-04T11:35:40.010Z,2.33
2022-09-04T11:38:18.646Z,2.30
2022-09-04T11:41:39.841Z,2.10
2022-09-04T11:44:46.668Z,1.80
2022-09-04T11:47:52.734Z,2.20
2022-09-04T11:50:35.256Z,2.20
2022-09-04T11:53:35.682Z,2.10
2022-09-04T11:56:31.360Z,2.20
2022-09-04T11:59:25.742Z,2.00
2022-09-04T12:02:18.921Z,1.75
2022-09-04T12:05:17.682Z,1.98
2022-09-04T12:08:05.183Z,1.92
2022-09-04T12:10:56.058Z,2.30
2022-09-04T12:13:47.253Z,2.00
2022-09-04T12:16:44.416Z,2.00
2022-09-04T12:19:43.067Z,2.20
2022-09-04T12:22:36.513Z,2.10
2022-09-04T12:25:48.404Z,2.22
2022-09-04T12:28:58.001Z,1.98
2022-09-04T12:31:51.906Z,2.20
2022-09-04T12:35:00.741Z,2.13
2022-09-04T12:38:03.072Z,2.30
2022-09-04T12:40:35.365Z,2.10
2022-09-04T12:43:20.993Z,2.10
2022-09-04T12:46:04.877Z,2.15
2022-09-04T12:48:43.950Z,2.20
2022-09-04T12:51:16.812Z,2.22
2022-09-04T12:54:03.620Z,2.17
2022-09-04T12:56:44.102Z,2.13
2022-09-04T12:59:40.195Z,2.45
2022-09-04T13:02:18.490Z,2.50
2022-09-04T13:04:57.472Z,2.33
2022-09-04T13:07:40.972Z,2.20
2022-09-04T13:10:22.484Z,2.40
2022-09-04T13:13:02.723Z,2.30
2022-09-04T13:15:38.382Z,2.20
2022-09-04T13:18:24.206Z,2.55
2022-09-04T13:21:00.071Z,2.13
2022-09-04T13:23:42.742Z,2.20
2022-09-04T13:26:44.483Z,2.15
2022-09-04T13:29:33.294Z,2.13
2022-09-04T13:32:27.812Z,2.55
2022-09-04T13:35:19.645Z,2.20
2022-09-04T13:38:08.346Z,2.30
2022-09-04T13:44:38.433Z,2.20
2022-09-04T13:47:18.431Z,2.20
2022-09-04T13:49:56.407Z,2.30
2022-09-04T13:52:35.225Z,2.25
2022-09-04T13:55:08.451Z,2.50
2022-09-04T13:58:01.452Z,2.42
2022-09-04T14:00:33.050Z,2.38
2022-09-04T14:03:04.217Z,2.40
2022-09-04T14:05:37.605Z,2.17
2022-09-04T14:08:14.286Z,2.50
2022-09-04T14:11:08.401Z,2.30
2022-09-04T14:14:03.465Z,2.55
2022-09-04T14:16:36.788Z,2.33
2022-09-04T14:19:33.054Z,2.50
2022-09-04T14:22:15.050Z,2.25
2022-09-04T14:24:56.389Z,2.50
2022-09-04T14:27:33.059Z,2.17
2022-09-04T14:30:08.347Z,2.25
2022-09-04T14:32:56.877Z,2.00
2022-09-04T14:35:34.388Z,2.45
2022-09-04T14:38:27.966Z,2.42
2022-09-04T14:41:05.893Z,2.35
2022-09-04T14:43:44.565Z,2.13
2022-09-04T14:46:24.294Z,1.92
2022-09-04T14:49:02.659Z,2.20
2022-09-04T14:51:36.152Z,2.30
2022-09-04T14:54:07.112Z,2.65
2022-09-04T14:56:45.171Z,2.38
2022-09-04T14:59:20.525Z,2.03
2022-09-04T15:02:19.777Z,2.40
2022-09-04T15:04:52.317Z,2.00
2022-09-04T15:07:36.184Z,2.33
2022-09-04T15:10:15.428Z,2.47
2022-09-04T15:12:55.043Z,2.50
2022-09-04T15:15:31.676Z,2.30
2022-09-04T15:18:10.841Z,2.63
2022-09-04T15:20:48.094Z,2.30
2022-09-04T15:23:24.249Z,2.38
2022-09-04T15:26:02.966Z,2.60
2022-09-04T15:28:40.434Z,2.40
2022-09-04T15:31:17.173Z,2.58
2022-09-04T15:33:49.123Z,2.53
2022-09-04T15:36:21.650Z,2.40
2022-09-04T15:39:33.529Z,2.13
2022-09-04T15:42:02.638Z,2.10
2022-09-04T15:44:40.326Z,2.50
2022-09-04T15:47:20.892Z,2.67
2022-09-04T15:49:54.470Z,2.50
2022-09-04T15:52:32.495Z,2.47
2022-09-04T15:55:09.104Z,2.65
2022-09-04T15:57:52.078Z,2.58
2022-09-04T16:00:39.617Z,2.33
2022-09-04T16:03:16.183Z,2.30
2022-09-04T16:05:48.370Z,2.40
2022-09-04T16:08:24.208Z,2.60
2022-09-04T16:11:00.358Z,2.20
2022-09-04T16:13:38.023Z,2.47
2022-09-04T16:16:14.049Z,2.45
2022-09-04T16:18:58.610Z,2.50
2022-09-04T16:21:40.682Z,2.40
2022-09-04T16:24:16.187Z,2.45
2022-09-04T16:26:50.079Z,2.10
2022-09-04T16:29:32.725Z,2.50
2022-09-04T16:32:04.422Z,2.70
2022-09-04T16:35:22.985Z,2.30
2022-09-04T16:37:54.171Z,2.38
2022-09-04T16:40:30.457Z,2.45
2022-09-04T16:43:04.003Z,2.22
2022-09-04T16:45:37.869Z,2.60
2022-09-04T16:48:34.767Z,2.83
2022-09-04T16:51:39.368Z,2.28
2022-09-04T16:54:05.980Z,2.55
2022-09-04T16:56:40.580Z,2.60
2022-09-04T16:59:38.052Z,2.60
2022-09-04T17:02:19.618Z,2.40
2022-09-04T17:04:54.298Z,2.58
2022-09-04T17:07:31.088Z,2.10
2022-09-04T17:10:06.383Z,2.35
2022-09-04T17:12:47.266Z,2.40
2022-09-04T17:15:26.271Z,2.60
2022-09-04T17:17:56.384Z,2.75
2022-09-04T17:21:26.155Z,4.30
2022-09-04T17:28:54.384Z,11.40
2022-09-04T17:29:12.649Z,13.67
2022-09-04T17:29:34.698Z,5.20
2022-09-04T17:32:14.238Z,2.50
2022-09-04T17:40:43.286Z,2.63
2022-09-04T17:40:48.438Z,2.50
2022-09-04T17:41:35.845Z,2.37
2022-09-04T17:44:11.125Z,2.63
2022-09-04T17:46:44.917Z,2.80
2022-09-04T17:49:20.607Z,2.40
2022-09-04T17:51:57.477Z,2.50
2022-09-04T17:54:35.382Z,2.40
2022-09-04T17:57:08.010Z,2.70
2022-09-04T17:59:45.389Z,2.40
2022-09-04T18:02:19.263Z,2.80
2022-09-04T18:04:54.011Z,2.60
2022-09-04T18:08:06.764Z,2.60
2022-09-04T18:10:28.470Z,2.50
2022-09-04T18:13:08.914Z,2.73
2022-09-04T18:16:02.653Z,2.50
2022-09-04T18:18:39.983Z,2.73
2022-09-04T18:21:16.397Z,2.50
2022-09-04T18:24:01.334Z,3.00
2022-09-04T18:26:40.772Z,2.97
2022-09-04T18:34:07.910Z,3.10
2022-09-04T18:37:17.614Z,3.03
2022-09-04T18:37:23.987Z,2.80
2022-09-04T18:38:53.675Z,3.27
2022-09-04T18:50:20.838Z,3.00
2022-09-04T18:50:45.044Z,2.70
2022-09-04T18:50:53.164Z,3.10
2022-09-04T18:53:33.514Z,3.40
2022-09-04T18:56:17.906Z,3.27
2022-09-04T18:59:08.119Z,3.43
2022-09-04T19:01:44.670Z,3.20
2022-09-04T19:04:46.176Z,3.33
2022-09-04T19:07:27.424Z,3.13
2022-09-04T19:10:08.862Z,3.00
2022-09-04T19:12:47.848Z,3.67
2022-09-04T19:15:45.097Z,3.00
2022-09-04T19:18:25.332Z,3.10
2022-09-04T19:21:20.836Z,3.10
2022-09-04T19:23:56.211Z,3.07
2022-09-04T19:26:36.197Z,3.00
2022-09-04T19:29:15.008Z,3.70
2022-09-04T19:31:54.809Z,3.37
2022-09-04T19:34:51.499Z,3.43
2022-09-04T19:38:28.910Z,3.20
2022-09-04T19:45:59.607Z,3.40
2022-09-04T19:46:00.907Z,3.17
2022-09-04T19:46:27.669Z,3.10
2022-09-04T19:53:19.016Z,3.30
2022-09-04T19:53:23.204Z,3.23
2022-09-04T19:55:25.248Z,3.30
2022-09-04T19:57:53.511Z,3.30
2022-09-04T20:00:42.500Z,3.40
2022-09-04T20:03:34.679Z,3.70
2022-09-04T20:06:20.835Z,3.60
2022-09-04T20:08:57.326Z,3.80
2022-09-04T20:11:36.010Z,3.20
2022-09-04T20:14:14.756Z,3.47
2022-09-04T20:16:54.342Z,3.47
2022-09-04T20:19:33.783Z,3.23
2022-09-04T20:22:08.842Z,3.60
2022-09-04T20:25:01.641Z,3.60
2022-09-04T20:27:37.574Z,3.40
2022-09-04T20:30:12.119Z,3.23
2022-09-04T20:32:56.577Z,3.30
2022-09-04T20:35:53.957Z,3.70
2022-09-04T20:38:30.821Z,3.30
2022-09-04T20:41:09.363Z,3.80
2022-09-04T20:43:57.361Z,3.20
2022-09-04T20:52:17.829Z,3.60
2022-09-04T20:52:52.242Z,3.30
2022-09-04T20:52:53.301Z,3.67
2022-09-04T20:55:44.175Z,3.30
2022-09-04T21:03:13.651Z,3.33
2022-09-04T21:03:15.079Z,3.20
2022-09-04T21:04:47.499Z,3.47
2022-09-04T21:07:26.961Z,3.50
2022-09-04T21:10:12.288Z,3.77
2022-09-04T21:12:46.845Z,4.00
2022-09-04T21:15:29.454Z,3.27
2022-09-04T21:18:22.165Z,3.83
2022-09-04T21:21:17.387Z,4.13
2022-09-04T21:24:12.324Z,3.47
2022-09-04T21:27:14.174Z,3.53
2022-09-04T21:29:59.548Z,3.60
2022-09-04T21:32:53.683Z,3.40
2022-09-04T21:35:33.656Z,3.43
2022-09-04T21:38:16.244Z,3.47
2022-09-04T21:41:27.067Z,3.70
2022-09-04T21:44:26.429Z,3.77
2022-09-04T21:47:24.392Z,3.40
2022-09-04T21:50:47.390Z,3.43
2022-09-04T21:53:39.550Z,3.73
2022-09-04T22:00:44.504Z,3.83
2022-09-04T22:02:44.604Z,3.43
2022-09-04T22:02:52.739Z,3.93
2022-09-04T22:05:28.617Z,4.00
2022-09-04T22:13:08.297Z,3.40
2022-09-04T22:13:30.627Z,3.47
2022-09-04T22:14:08.520Z,3.53
2022-09-04T22:17:03.099Z,3.97
2022-09-04T22:19:49.626Z,3.77
2022-09-04T22:22:37.009Z,3.20
2022-09-04T22:25:33.022Z,4.03
2022-09-04T22:28:41.196Z,3.57
2022-09-04T22:31:39.331Z,3.60
2022-09-04T22:34:39.984Z,3.93
2022-09-04T22:37:37.842Z,3.67
2022-09-04T22:40:23.554Z,3.80
2022-09-04T22:42:58.989Z,3.70
2022-09-04T22:46:03.138Z,3.77
2022-09-04T22:49:11.989Z,4.10
2022-09-04T22:52:11.732Z,3.60
2022-09-04T22:55:23.090Z,3.80
2022-09-04T22:58:08.740Z,3.80
2022-09-04T23:00:53.248Z,3.73
2022-09-04T23:03:36.096Z,3.80
2022-09-04T23:09:58.634Z,4.10
2022-09-04T23:13:59.758Z,4.13
2022-09-04T23:14:02.710Z,3.73
2022-09-04T23:16:06.868Z,3.97
2022-09-04T23:19:13.728Z,3.87
2022-09-04T23:26:49.396Z,4.60
2022-09-04T23:26:50.537Z,3.67
2022-09-04T23:28:27.877Z,4.23
2022-09-04T23:31:09.414Z,4.10
2022-09-04T23:34:01.625Z,4.20
2022-09-04T23:36:49.364Z,4.20
2022-09-04T23:39:31.485Z,4.97
2022-09-04T23:42:14.080Z,4.10
2022-09-04T23:45:04.371Z,3.70
2022-09-04T23:48:10.516Z,4.17
2022-09-04T23:50:49.521Z,4.37
2022-09-04T23:53:26.343Z,4.80
2022-09-04T23:56:06.913Z,3.70
2022-09-04T23:59:12.661Z,4.50
